This is the latest recevied weather packets stored in our database for station/object K3RTA-2. If no packets are shown the sender has not sent any weather packets the latest 10 day(s).
| Time | Temp. | Humidity | Pressure | Rain* | Wind** | Luminosity | Snow |
|---|---|---|---|---|---|---|---|
| 1778036704 | 19.44° C | 78% | 1012.9 hPa | 0 mm | - | - | - |
| 1778036104 | 19.44° C | 78% | 1012.9 hPa | 0 mm | - | - | - |
| 1778035204 | 19.44° C | 78% | 1013 hPa | 0 mm | - | - | - |
| 1778031604 | 20° C | 75% | 1012.9 hPa | 0 mm | - | - | - |
| 1778029203 | 20.56° C | 74% | 1012.1 hPa | 0 mm | - | - | - |
| 1778028604 | 20.56° C | 73% | 1012.1 hPa | 0 mm | - | - | - |
| 1778024704 | 21.67° C | 66% | 1011.6 hPa | 0 mm | - | - | - |
| 1778023804 | 22.22° C | 63% | 1011.6 hPa | 0 mm | - | - | - |
| 1778023504 | 22.22° C | 62% | 1011.5 hPa | 0 mm | - | - | - |
| 1778023204 | 22.22° C | 61% | 1011.6 hPa | 0 mm | - | - | - |
| 1778022004 | 23.33° C | 58% | 1011.5 hPa | 0 mm | - | - | - |
| 1778019903 | 24.44° C | 54% | 1011.5 hPa | 0 mm | - | - | - |
| 1778019304 | 25° C | 54% | 1011.5 hPa | 0 mm | - | - | - |
| 1778019004 | 25° C | 54% | 1011.4 hPa | 0 mm | - | - | - |
| 1778018104 | 26.11° C | 52% | 1011.3 hPa | 0 mm | - | - | - |
| 1778016305 | 26.67° C | 50% | 1011.1 hPa | 0 mm | - | - | - |
| 1778016004 | 27.22° C | 49% | 1011 hPa | 0 mm | - | - | - |
| 1778014505 | 28.33° C | 40% | 1011.2 hPa | 0 mm | - | - | - |
| 1778012404 | 27.78° C | 40% | 1011.3 hPa | 0 mm | - | - | - |
| 1778011805 | 28.33° C | 40% | 1011.4 hPa | 0 mm | - | - | - |
| 1778011504 | 28.33° C | 40% | 1011.4 hPa | 0 mm | - | - | - |
| 1778009705 | 28.89° C | 39% | 1011.8 hPa | 0 mm | - | - | - |
| 1778009103 | 28.89° C | 40% | 1011.8 hPa | 0 mm | - | - | - |
| 1778008504 | 29.44° C | 38% | 1011.7 hPa | 0 mm | - | - | - |
| 1778007904 | 28.89° C | 39% | 1011.9 hPa | 0 mm | - | - | - |
* Rain latest hour (hover to see other rain measurements)
** Current wind speed in m/s (hover to see current wind gust speed)